createdAt,value
2023-03-10T00:05:51.087Z,232.47
2023-03-10T00:15:54.525Z,228.37
2023-03-10T00:26:01.845Z,234.33
2023-03-10T00:36:09.265Z,227.97
2023-03-10T00:46:14.352Z,230.17
2023-03-10T00:56:21.455Z,228.60
2023-03-10T01:06:27.420Z,229.87
2023-03-10T01:16:31.524Z,227.87
2023-03-10T01:26:36.864Z,229.80
2023-03-10T01:36:43.261Z,223.43
2023-03-10T01:46:51.488Z,223.50
2023-03-10T01:56:59.363Z,225.30
2023-03-10T02:07:08.091Z,226.60
2023-03-10T02:17:17.954Z,206.47
2023-03-10T02:27:25.737Z,202.37
2023-03-10T02:37:32.896Z,194.07
2023-03-10T02:47:37.901Z,195.20
2023-03-10T02:57:41.438Z,196.40
2023-03-10T03:07:46.321Z,196.93
2023-03-10T03:17:50.158Z,194.83
2023-03-10T03:27:55.956Z,195.57
2023-03-10T03:37:59.613Z,198.50
2023-03-10T03:48:05.102Z,199.50
2023-03-10T03:58:11.473Z,195.90
2023-03-10T04:08:16.425Z,199.57
2023-03-10T04:18:20.062Z,195.73
2023-03-10T04:28:25.812Z,196.40
2023-03-10T04:38:29.277Z,198.37
2023-03-10T04:48:35.365Z,199.47
2023-03-10T04:58:40.664Z,198.17
2023-03-10T05:08:46.434Z,196.33
2023-03-10T05:18:51.292Z,201.50
2023-03-10T05:29:00.323Z,192.93
2023-03-10T05:39:27.784Z,196.77
2023-03-10T05:49:37.400Z,200.97
2023-03-10T05:59:42.340Z,201.93
2023-03-10T06:09:47.419Z,200.33
2023-03-10T06:19:52.397Z,196.50
2023-03-10T06:29:57.265Z,201.17
2023-03-10T06:40:01.830Z,200.07
2023-03-10T06:50:08.657Z,208.20
2023-03-10T07:00:15.885Z,204.90
2023-03-10T07:10:22.755Z,207.93
2023-03-10T07:20:26.437Z,213.37
2023-03-10T07:30:31.438Z,218.23
2023-03-10T07:40:35.264Z,216.80
2023-03-10T07:50:40.091Z,218.90
2023-03-10T08:00:43.552Z,223.63
2023-03-10T08:10:48.620Z,221.37
2023-03-10T08:20:52.022Z,219.37
2023-03-10T08:31:04.094Z,215.80
2023-03-10T08:41:15.250Z,215.07
2023-03-10T08:51:20.398Z,215.10
2023-03-10T09:01:23.968Z,217.30
2023-03-10T09:11:32.369Z,214.13
2023-03-10T09:21:35.898Z,219.50
2023-03-10T09:31:41.066Z,219.80
2023-03-10T09:42:06.058Z,222.37
2023-03-10T09:52:25.784Z,223.13
2023-03-10T10:02:34.694Z,216.77
2023-03-10T10:12:39.547Z,217.70
2023-03-10T10:22:45.560Z,218.40
2023-03-10T10:33:00.053Z,215.37
2023-03-10T10:43:07.779Z,218.67
2023-03-10T10:53:22.345Z,214.60
2023-03-10T11:03:33.199Z,213.32
2023-03-10T11:14:03.981Z,215.75
2023-03-10T11:24:15.303Z,217.60
2023-03-10T11:34:30.406Z,212.77
2023-03-10T11:44:40.344Z,208.57
2023-03-10T11:54:50.358Z,206.93
2023-03-10T12:05:00.688Z,201.18
2023-03-10T12:15:14.540Z,199.68
2023-03-10T12:25:47.000Z,207.05
2023-03-10T12:35:55.624Z,200.75
2023-03-10T12:46:02.318Z,189.00
2023-03-10T12:56:36.764Z,194.30
2023-03-10T13:06:42.238Z,193.82
2023-03-10T13:16:57.938Z,196.45
2023-03-10T13:27:14.222Z,206.70
2023-03-10T13:37:19.281Z,214.30
2023-03-10T13:47:25.377Z,208.23
2023-03-10T13:57:34.859Z,210.00
2023-03-10T14:07:39.849Z,212.10
2023-03-10T14:17:46.636Z,208.83
2023-03-10T14:27:56.412Z,217.50
2023-03-10T14:38:01.277Z,219.47
2023-03-10T14:48:14.013Z,218.67
2023-03-10T14:58:23.543Z,222.10
2023-03-10T15:08:29.872Z,211.53
2023-03-10T15:18:35.438Z,216.40
2023-03-10T15:28:39.888Z,220.40
2023-03-10T15:38:45.768Z,228.53
2023-03-10T15:48:49.180Z,230.07
2023-03-10T15:58:54.050Z,232.17
2023-03-10T16:08:59.045Z,229.23
2023-03-10T16:19:03.830Z,233.27
2023-03-10T16:29:07.359Z,226.13
2023-03-10T16:39:13.233Z,224.93
2023-03-10T16:49:18.196Z,234.60
2023-03-10T16:59:25.776Z,221.03
2023-03-10T17:09:29.496Z,233.07
2023-03-10T17:19:34.309Z,229.60
2023-03-10T17:29:37.958Z,223.63
2023-03-10T17:39:42.928Z,220.13
2023-03-10T17:49:46.576Z,231.40
2023-03-10T17:59:51.874Z,282.83
2023-03-10T18:09:56.905Z,213.00
2023-03-10T18:20:01.915Z,204.93
2023-03-10T18:30:06.961Z,194.40
2023-03-10T18:40:17.159Z,188.43
2023-03-10T18:50:20.922Z,188.43
2023-03-10T19:00:27.300Z,204.80
2023-03-10T19:10:31.328Z,204.57
2023-03-10T19:20:36.118Z,200.33
2023-03-10T19:30:42.820Z,197.67
2023-03-10T19:40:51.181Z,198.50
2023-03-10T19:50:55.432Z,198.13
2023-03-10T20:01:00.677Z,201.43
2023-03-10T20:11:04.588Z,198.30
2023-03-10T20:21:12.068Z,195.47
2023-03-10T20:31:22.718Z,201.87
2023-03-10T20:41:27.727Z,252.70
2023-03-10T20:51:31.183Z,200.17
2023-03-10T21:01:39.767Z,198.93
2023-03-10T21:11:43.544Z,203.57
2023-03-10T21:21:48.566Z,200.87
2023-03-10T21:31:52.000Z,198.60
2023-03-10T21:41:56.829Z,201.63
2023-03-10T21:52:00.407Z,197.47
2023-03-10T22:02:05.246Z,196.73
2023-03-10T22:12:09.391Z,201.07
2023-03-10T22:22:14.217Z,195.10
2023-03-10T22:32:17.876Z,194.90
2023-03-10T22:42:22.668Z,195.17
2023-03-10T22:52:26.103Z,196.10
2023-03-10T23:02:30.921Z,196.03
2023-03-10T23:12:34.902Z,192.07
2023-03-10T23:22:39.735Z,203.60
2023-03-10T23:32:43.633Z,202.07
2023-03-10T23:42:48.824Z,199.27
2023-03-10T23:52:52.391Z,200.40
